createdAt,value
2018-11-20T00:08:13.292Z,100853.47
2018-11-20T00:16:35.293Z,100869.22
2018-11-20T00:24:56.410Z,100858.20
2018-11-20T00:33:17.428Z,100866.39
2018-11-20T00:41:38.411Z,100851.57
2018-11-20T00:49:59.362Z,100834.23
2018-11-20T00:58:20.335Z,100844.94
2018-11-20T01:06:41.383Z,100825.30
2018-11-20T01:15:02.424Z,100808.64
2018-11-20T01:23:23.391Z,100788.18
2018-11-20T01:31:44.356Z,100782.93
2018-11-20T01:40:05.703Z,100780.84
2018-11-20T01:48:26.721Z,100776.53
2018-11-20T01:56:47.695Z,100754.17
2018-11-20T02:05:08.726Z,100742.69
2018-11-20T02:13:30.519Z,100724.90
2018-11-20T02:21:51.518Z,100714.36
2018-11-20T02:30:12.465Z,100711.14
2018-11-20T02:38:33.456Z,100703.02
2018-11-20T02:46:54.461Z,100694.48
2018-11-20T02:55:15.473Z,100670.11
2018-11-20T03:03:37.227Z,100653.50
2018-11-20T03:11:59.049Z,100641.38
2018-11-20T03:20:20.049Z,100639.55
2018-11-20T03:28:41.157Z,100631.98
2018-11-20T03:37:02.455Z,100609.97
2018-11-20T03:45:23.569Z,100605.88
2018-11-20T03:53:44.578Z,100609.07
2018-11-20T04:02:05.561Z,100593.86
2018-11-20T04:10:26.667Z,100592.63
2018-11-20T04:18:47.972Z,100582.42
2018-11-20T04:27:08.960Z,100572.97
2018-11-20T04:35:29.914Z,100565.23
2018-11-20T04:43:51.034Z,100560.16
2018-11-20T04:52:12.153Z,100539.00
2018-11-20T05:00:33.958Z,100528.28
2018-11-20T05:08:55.026Z,100515.25
2018-11-20T05:17:16.870Z,100533.42
2018-11-20T05:25:37.940Z,100502.39
2018-11-20T05:33:58.893Z,100507.51
2018-11-20T05:42:19.978Z,100514.20
2018-11-20T05:50:40.929Z,100505.60
2018-11-20T05:59:01.969Z,100506.77
2018-11-20T06:07:23.087Z,100516.81
2018-11-20T06:15:44.034Z,100498.59
2018-11-20T06:24:05.014Z,100503.72
2018-11-20T06:32:25.997Z,100498.40
2018-11-20T06:40:46.935Z,100499.27
2018-11-20T06:49:07.913Z,100493.21
2018-11-20T06:57:28.968Z,100493.21
2018-11-20T07:05:49.884Z,100494.55
2018-11-20T07:14:10.861Z,100489.98
2018-11-20T07:22:31.905Z,100481.51
2018-11-20T07:30:54.042Z,100470.48
2018-11-20T07:39:14.921Z,100455.95
2018-11-20T07:47:35.909Z,100468.75
2018-11-20T07:55:57.903Z,100455.77
2018-11-20T08:04:18.719Z,100461.14
2018-11-20T08:12:39.756Z,100464.77
2018-11-20T08:21:01.588Z,100483.33
2018-11-20T08:29:22.578Z,100485.55
2018-11-20T08:37:43.536Z,100478.73
2018-11-20T08:46:04.592Z,100472.70
2018-11-20T08:54:25.581Z,100477.09
2018-11-20T09:02:46.601Z,100471.33
2018-11-20T09:11:07.519Z,100463.69
2018-11-20T09:19:28.626Z,100466.12
2018-11-20T09:27:49.658Z,100463.00
2018-11-20T09:36:10.702Z,100455.58
2018-11-20T09:44:32.255Z,100434.86
2018-11-20T09:52:53.290Z,100424.27
2018-11-20T10:01:14.182Z,100419.45
2018-11-20T10:09:35.176Z,100419.13
2018-11-20T10:17:57.014Z,100410.42
2018-11-20T10:26:17.999Z,100423.48
2018-11-20T10:34:39.158Z,100409.32
2018-11-20T10:43:00.120Z,100408.92
2018-11-20T10:51:21.215Z,100395.44
2018-11-20T10:59:42.287Z,100396.34
2018-11-20T11:08:03.223Z,100389.15
2018-11-20T11:16:24.308Z,100384.16
2018-11-20T11:24:46.083Z,100362.09
2018-11-20T11:33:07.055Z,100373.22
2018-11-20T11:41:28.018Z,100345.16
2018-11-20T11:49:49.830Z,100349.84
2018-11-20T11:58:11.161Z,100351.16
2018-11-20T12:06:32.244Z,100340.28
2018-11-20T12:14:54.096Z,100343.75
2018-11-20T12:23:15.070Z,100334.30
2018-11-20T12:31:36.036Z,100329.09
2018-11-20T12:39:58.434Z,100339.28
2018-11-20T12:48:18.204Z,100346.93
2018-11-20T12:56:39.287Z,100328.98
2018-11-20T13:05:01.186Z,100331.12
2018-11-20T13:13:22.287Z,100334.44
2018-11-20T13:21:44.955Z,100331.13
2018-11-20T13:30:04.216Z,100322.77
2018-11-20T13:38:25.177Z,100332.13
2018-11-20T13:46:46.287Z,100333.70
2018-11-20T13:55:07.236Z,100328.27
2018-11-20T14:03:28.244Z,100322.02
2018-11-20T14:11:49.190Z,100315.75
2018-11-20T14:20:10.161Z,100310.88
2018-11-20T14:28:31.115Z,100301.98
2018-11-20T14:36:52.163Z,100295.31
2018-11-20T14:45:13.185Z,100296.44
2018-11-20T14:53:34.173Z,100275.53
2018-11-20T15:01:55.131Z,100271.52
2018-11-20T15:10:16.201Z,100256.81
2018-11-20T15:18:40.490Z,100256.61
2018-11-20T15:26:58.910Z,100278.87
2018-11-20T15:35:19.976Z,100281.23
2018-11-20T15:43:41.302Z,100289.92
2018-11-20T15:52:02.388Z,100300.60
2018-11-20T16:00:23.367Z,100313.80
2018-11-20T16:08:44.423Z,100322.61
2018-11-20T16:17:16.468Z,100322.97
2018-11-20T16:25:26.932Z,100328.76
2018-11-20T16:33:48.125Z,100320.94
2018-11-20T16:42:09.189Z,100325.92
2018-11-20T16:50:30.319Z,100323.70
2018-11-20T16:58:51.324Z,100323.59
2018-11-20T17:07:12.669Z,100323.39
2018-11-20T17:15:34.685Z,100334.60
2018-11-20T17:23:55.841Z,100334.89
2018-11-20T17:32:16.909Z,100337.93
2018-11-20T17:40:38.331Z,100342.60
2018-11-20T17:48:59.531Z,100319.87
2018-11-20T17:57:20.620Z,100310.52
2018-11-20T18:05:42.278Z,100299.69
2018-11-20T18:14:04.042Z,100293.05
2018-11-20T18:22:25.017Z,100300.25
2018-11-20T18:30:46.792Z,100342.39
2018-11-20T18:39:07.923Z,100356.77
2018-11-20T18:47:29.269Z,100358.03
2018-11-20T18:55:50.249Z,100355.30
2018-11-20T19:04:11.315Z,100332.95
2018-11-20T19:12:32.307Z,100316.86
2018-11-20T19:20:53.366Z,100275.08
2018-11-20T19:29:14.351Z,100306.20
2018-11-20T19:37:35.781Z,100315.20
2018-11-20T19:46:37.850Z,100354.84
2018-11-20T19:54:58.909Z,100363.47
2018-11-20T20:03:19.892Z,100371.48
2018-11-20T20:11:40.924Z,100373.95
2018-11-20T20:20:01.890Z,100387.43
2018-11-20T20:28:22.950Z,100395.22
2018-11-20T20:36:44.315Z,100415.84
2018-11-20T20:45:05.286Z,100432.15
2018-11-20T20:53:26.267Z,100434.41
2018-11-20T21:01:47.219Z,100430.20
2018-11-20T21:10:08.260Z,100413.20
2018-11-20T21:18:29.345Z,100415.08
2018-11-20T21:26:50.541Z,100424.81
2018-11-20T21:35:11.653Z,100434.86
2018-11-20T21:43:32.615Z,100449.45
2018-11-20T21:51:53.638Z,100453.73
2018-11-20T22:00:14.704Z,100453.56
2018-11-20T22:08:35.680Z,100485.25
2018-11-20T22:16:56.646Z,100499.25
2018-11-20T22:25:17.617Z,100504.17
2018-11-20T22:33:38.585Z,100519.14
2018-11-20T22:41:59.565Z,100544.36
2018-11-20T22:50:20.511Z,100545.59
2018-11-20T22:58:41.648Z,100549.70
2018-11-20T23:07:02.596Z,100533.13
2018-11-20T23:15:23.563Z,100546.44
2018-11-20T23:23:44.626Z,100542.61
2018-11-20T23:32:05.664Z,100560.28
2018-11-20T23:40:26.650Z,100566.66
2018-11-20T23:48:47.614Z,100558.34
2018-11-20T23:57:08.658Z,100560.83
